createdAt,value
2022-11-04T00:01:39.387Z,32.58
2022-11-04T00:04:07.163Z,32.88
2022-11-04T00:06:34.946Z,30.67
2022-11-04T00:09:04.004Z,30.13
2022-11-04T00:11:50.294Z,31.63
2022-11-04T00:14:18.962Z,32.00
2022-11-04T00:17:05.488Z,29.23
2022-11-04T00:19:51.870Z,28.52
2022-11-04T00:22:38.473Z,28.65
2022-11-04T00:25:24.828Z,28.77
2022-11-04T00:28:10.799Z,28.30
2022-11-04T00:30:38.548Z,29.75
2022-11-04T00:33:24.708Z,29.15
2022-11-04T00:35:54.932Z,28.55
2022-11-04T00:38:24.160Z,29.08
2022-11-04T00:40:52.135Z,29.15
2022-11-04T00:43:19.765Z,29.08
2022-11-04T00:45:47.300Z,26.60
2022-11-04T00:48:15.028Z,27.10
2022-11-04T00:50:42.574Z,28.58
2022-11-04T00:53:10.514Z,27.52
2022-11-04T00:55:38.356Z,27.58
2022-11-04T00:58:05.810Z,28.42
2022-11-04T01:00:33.351Z,27.08
2022-11-04T01:03:01.054Z,27.30
2022-11-04T01:05:28.673Z,27.65
2022-11-04T01:07:56.924Z,27.55
2022-11-04T01:10:24.640Z,28.08
2022-11-04T01:12:52.939Z,26.05
2022-11-04T01:15:20.473Z,27.80
2022-11-04T01:17:48.268Z,25.80
2022-11-04T01:20:15.798Z,27.20
2022-11-04T01:22:43.539Z,26.30
2022-11-04T01:25:11.042Z,26.02
2022-11-04T01:27:38.638Z,27.85
2022-11-04T01:30:07.478Z,27.48
2022-11-04T01:32:34.958Z,26.45
2022-11-04T01:35:02.436Z,25.80
2022-11-04T01:37:29.960Z,29.02
2022-11-04T01:39:57.771Z,29.65
2022-11-04T01:42:25.224Z,28.13
2022-11-04T01:44:58.481Z,27.65
2022-11-04T01:47:31.540Z,27.95
2022-11-04T01:52:41.775Z,29.45
2022-11-04T01:55:17.660Z,28.10
2022-11-04T01:57:49.120Z,28.08
2022-11-04T02:00:17.917Z,29.50
2022-11-04T02:03:02.912Z,27.60
2022-11-04T02:05:30.881Z,27.95
2022-11-04T02:08:02.620Z,27.95
2022-11-04T02:10:31.780Z,28.05
2022-11-04T02:13:03.075Z,28.40
2022-11-04T02:15:43.752Z,28.92
2022-11-04T02:18:32.344Z,27.67
2022-11-04T02:21:38.207Z,29.23
2022-11-04T02:24:30.300Z,28.70
2022-11-04T02:27:35.077Z,28.52
2022-11-04T02:30:16.093Z,28.55
2022-11-04T02:33:01.829Z,28.58
2022-11-04T02:35:41.332Z,27.45
2022-11-04T02:38:08.821Z,29.90
2022-11-04T02:40:44.252Z,29.23
2022-11-04T02:43:42.502Z,29.38
2022-11-04T02:46:21.379Z,29.42
2022-11-04T02:49:07.565Z,29.10
2022-11-04T02:52:05.057Z,30.48
2022-11-04T02:54:45.362Z,28.60
2022-11-04T02:57:18.236Z,32.97
2022-11-04T03:00:02.285Z,30.08
2022-11-04T03:02:35.977Z,30.90
2022-11-04T03:05:08.386Z,32.58
2022-11-04T03:07:39.771Z,31.67
2022-11-04T03:10:16.199Z,32.72
2022-11-04T03:13:02.298Z,32.70
2022-11-04T03:15:33.891Z,33.38
2022-11-04T03:18:12.947Z,31.15
2022-11-04T03:20:41.785Z,31.48
2022-11-04T03:23:11.118Z,31.45
2022-11-04T03:25:45.112Z,30.58
2022-11-04T03:28:38.555Z,31.80
2022-11-04T03:31:10.816Z,29.15
2022-11-04T03:33:47.754Z,31.98
2022-11-04T03:36:15.946Z,30.90
2022-11-04T03:38:44.501Z,30.67
2022-11-04T03:41:31.838Z,31.35
2022-11-04T03:43:59.285Z,32.58
2022-11-04T03:46:27.029Z,31.85
2022-11-04T03:48:55.714Z,31.08
2022-11-04T03:51:23.197Z,31.60
2022-11-04T03:53:50.732Z,33.03
2022-11-04T03:56:45.216Z,33.03
2022-11-04T03:59:24.699Z,33.83
2022-11-04T04:02:22.717Z,32.92
2022-11-04T04:05:00.148Z,34.10
2022-11-04T04:07:39.152Z,33.67
2022-11-04T04:10:37.895Z,33.95
2022-11-04T04:13:20.891Z,34.17
2022-11-04T04:16:28.149Z,36.67
2022-11-04T04:19:02.993Z,33.50
2022-11-04T04:21:41.601Z,35.08
2022-11-04T04:24:31.057Z,33.30
2022-11-04T04:27:18.345Z,36.55
2022-11-04T04:29:47.573Z,37.72
2022-11-04T04:32:16.405Z,34.28
2022-11-04T04:34:44.427Z,37.58
2022-11-04T04:37:19.773Z,35.03
2022-11-04T04:40:10.694Z,36.60
2022-11-04T04:42:57.073Z,39.53
2022-11-04T04:45:38.129Z,38.03
2022-11-04T04:48:07.354Z,42.72
2022-11-04T04:50:38.871Z,40.78
2022-11-04T04:53:06.797Z,43.50
2022-11-04T04:55:40.524Z,41.72
2022-11-04T04:58:10.332Z,40.90
2022-11-04T05:00:37.804Z,44.58
2022-11-04T05:03:05.392Z,43.38
2022-11-04T05:05:33.159Z,47.28
2022-11-04T05:08:08.357Z,44.40
2022-11-04T05:10:36.279Z,47.45
2022-11-04T05:13:22.282Z,44.67
2022-11-04T05:15:49.752Z,48.58
2022-11-04T05:18:18.078Z,46.92
2022-11-04T05:20:45.634Z,47.25
2022-11-04T05:23:13.688Z,47.58
2022-11-04T05:25:42.014Z,48.70
2022-11-04T05:28:10.497Z,47.88
2022-11-04T05:30:44.264Z,50.78
2022-11-04T05:33:12.257Z,52.50
2022-11-04T05:35:40.092Z,50.75
2022-11-04T05:38:07.574Z,52.22
2022-11-04T05:40:35.119Z,53.08
2022-11-04T05:43:02.719Z,54.30
2022-11-04T05:45:30.451Z,54.15
2022-11-04T05:48:02.393Z,55.50
2022-11-04T05:50:31.388Z,51.72
2022-11-04T05:53:01.595Z,53.97
2022-11-04T05:55:29.098Z,53.38
2022-11-04T05:57:58.089Z,55.95
2022-11-04T06:00:27.332Z,55.03
2022-11-04T06:02:58.742Z,56.40
2022-11-04T06:05:28.016Z,55.53
2022-11-04T06:07:56.095Z,54.95
2022-11-04T06:10:24.860Z,60.65
2022-11-04T06:12:52.357Z,54.38
2022-11-04T06:15:19.847Z,55.35
2022-11-04T06:17:47.408Z,56.53
2022-11-04T06:20:15.099Z,57.50
2022-11-04T06:22:42.690Z,58.25
2022-11-04T06:25:10.154Z,59.03
2022-11-04T06:27:37.725Z,56.30
2022-11-04T06:30:06.181Z,58.67
2022-11-04T06:32:33.685Z,57.22
2022-11-04T06:35:01.098Z,55.65
2022-11-04T06:37:28.873Z,54.45
2022-11-04T06:39:56.675Z,53.70
2022-11-04T06:42:25.925Z,48.85
2022-11-04T06:44:53.388Z,50.22
2022-11-04T06:47:24.568Z,49.17
2022-11-04T06:49:52.585Z,46.65
2022-11-04T06:52:20.812Z,46.38
2022-11-04T06:54:48.276Z,47.05
2022-11-04T06:57:15.793Z,45.53
2022-11-04T06:59:46.879Z,44.42
2022-11-04T07:02:14.470Z,44.58
2022-11-04T07:04:42.039Z,45.95
2022-11-04T07:07:09.537Z,44.53
2022-11-04T07:09:37.629Z,44.70
2022-11-04T07:12:05.546Z,43.22
2022-11-04T07:14:33.035Z,44.08
2022-11-04T07:17:00.512Z,43.90
2022-11-04T07:19:27.987Z,42.17
2022-11-04T07:21:55.525Z,42.78
2022-11-04T07:24:22.983Z,42.00
2022-11-04T07:26:50.496Z,42.35
2022-11-04T07:29:17.963Z,44.55
2022-11-04T07:31:45.473Z,40.22
2022-11-04T07:34:13.153Z,40.35
2022-11-04T07:36:40.730Z,43.50
2022-11-04T07:39:08.690Z,48.42
2022-11-04T07:41:36.312Z,49.20
2022-11-04T07:44:05.541Z,50.70
2022-11-04T07:46:37.028Z,46.42
2022-11-04T07:49:04.605Z,49.90
2022-11-04T07:51:32.603Z,51.75
2022-11-04T07:54:00.714Z,52.05
2022-11-04T07:56:28.170Z,48.80
2022-11-04T07:58:55.639Z,49.47
2022-11-04T08:01:24.791Z,51.22
2022-11-04T08:03:52.691Z,50.10
2022-11-04T08:06:21.476Z,49.38
2022-11-04T08:08:49.179Z,48.00
2022-11-04T08:11:24.819Z,47.45
2022-11-04T08:13:52.323Z,51.28
2022-11-04T08:16:22.162Z,47.50
2022-11-04T08:18:52.542Z,49.15
2022-11-04T08:21:20.926Z,48.97
2022-11-04T08:23:48.450Z,55.97
2022-11-04T08:26:17.961Z,51.53
2022-11-04T08:28:46.632Z,53.05
2022-11-04T08:31:17.792Z,54.33
2022-11-04T08:33:46.085Z,50.75
2022-11-04T08:36:20.165Z,50.58
2022-11-04T08:38:47.914Z,48.53
2022-11-04T08:41:19.880Z,51.60
2022-11-04T08:43:48.218Z,48.30
2022-11-04T08:46:16.303Z,50.97
2022-11-04T08:48:44.181Z,47.53
2022-11-04T08:51:19.434Z,45.22
2022-11-04T08:53:47.072Z,45.10
2022-11-04T08:56:22.132Z,48.30
2022-11-04T08:58:49.794Z,45.85
2022-11-04T09:01:18.663Z,46.42
2022-11-04T09:03:46.783Z,46.72
2022-11-04T09:06:20.317Z,47.75
2022-11-04T09:08:49.925Z,47.88
2022-11-04T09:11:18.670Z,48.20
2022-11-04T09:13:46.262Z,49.75
2022-11-04T09:16:15.028Z,51.50
2022-11-04T09:18:42.674Z,54.03
2022-11-04T09:21:11.740Z,53.85
2022-11-04T09:23:40.154Z,56.05
2022-11-04T09:26:17.260Z,54.78
2022-11-04T09:28:44.977Z,53.00
2022-11-04T09:31:16.408Z,48.75
2022-11-04T09:33:44.363Z,47.63
2022-11-04T09:36:13.029Z,47.53
2022-11-04T09:38:42.298Z,48.63
2022-11-04T09:41:38.483Z,47.33
2022-11-04T09:44:19.053Z,50.55
2022-11-04T09:46:49.520Z,47.42
2022-11-04T09:49:17.342Z,49.22
2022-11-04T09:51:54.455Z,48.85
2022-11-04T09:54:43.036Z,49.60
2022-11-04T09:57:17.830Z,48.53
2022-11-04T09:59:47.128Z,48.83
2022-11-04T10:02:28.161Z,48.42
2022-11-04T10:05:04.902Z,50.78
2022-11-04T10:07:55.733Z,49.40
2022-11-04T10:10:42.741Z,48.40
2022-11-04T10:13:46.335Z,47.25
2022-11-04T10:16:32.503Z,46.70
2022-11-04T10:19:15.120Z,44.28
2022-11-04T10:21:51.883Z,44.53
2022-11-04T10:24:38.935Z,43.53
2022-11-04T10:27:19.808Z,45.67
2022-11-04T10:29:53.154Z,46.38
2022-11-04T10:32:35.532Z,46.85
2022-11-04T10:35:15.241Z,48.05
2022-11-04T10:37:43.012Z,50.05
2022-11-04T10:40:36.493Z,51.67
2022-11-04T10:43:10.670Z,48.50
2022-11-04T10:45:49.006Z,50.88
2022-11-04T10:48:29.175Z,48.80
2022-11-04T10:50:58.823Z,49.60
2022-11-04T10:53:28.613Z,48.88
2022-11-04T10:56:05.172Z,46.15
2022-11-04T10:58:40.154Z,48.70
2022-11-04T11:01:29.955Z,49.15
2022-11-04T11:03:59.527Z,49.10
2022-11-04T11:06:33.102Z,49.50
2022-11-04T11:09:28.490Z,48.92
2022-11-04T11:12:49.637Z,46.85
2022-11-04T11:15:32.743Z,48.72
2022-11-04T11:18:03.010Z,48.20
2022-11-04T11:20:33.444Z,46.80
2022-11-04T11:23:04.814Z,46.65
2022-11-04T11:25:34.556Z,49.05
2022-11-04T11:28:09.229Z,47.67
2022-11-04T11:30:57.162Z,45.17
2022-11-04T11:33:36.981Z,46.42
2022-11-04T11:36:12.830Z,46.92
2022-11-04T11:39:06.834Z,49.15
2022-11-04T11:41:52.988Z,44.55
2022-11-04T11:44:33.035Z,44.42
2022-11-04T11:47:05.671Z,44.85
2022-11-04T11:49:37.140Z,48.72
2022-11-04T11:52:17.449Z,47.75
2022-11-04T11:54:49.627Z,46.97
2022-11-04T12:01:11.999Z,51.42
2022-11-04T12:09:43.002Z,52.65
2022-11-04T12:12:10.501Z,51.88
2022-11-04T12:15:12.882Z,53.05
2022-11-04T12:17:59.254Z,53.80
2022-11-04T12:20:47.822Z,55.55
2022-11-04T12:23:44.177Z,54.53
2022-11-04T12:26:36.882Z,57.08
2022-11-04T12:29:13.804Z,54.10
2022-11-04T12:31:53.549Z,54.70
2022-11-04T12:34:39.241Z,55.45
2022-11-04T12:37:35.447Z,54.20
2022-11-04T12:40:23.565Z,55.90
2022-11-04T12:43:00.673Z,54.20
2022-11-04T12:45:42.505Z,54.60
2022-11-04T12:48:20.550Z,54.08
2022-11-04T12:51:13.746Z,54.20
2022-11-04T12:53:54.083Z,54.92
2022-11-04T12:56:38.064Z,56.65
2022-11-04T12:59:20.723Z,59.85
2022-11-04T13:01:54.571Z,58.30
2022-11-04T13:04:44.071Z,56.05
2022-11-04T13:07:23.394Z,57.55
2022-11-04T13:09:55.958Z,60.47
2022-11-04T13:12:29.922Z,59.58
2022-11-04T13:15:04.456Z,61.10
2022-11-04T13:17:41.537Z,58.95
2022-11-04T13:20:14.040Z,59.38
2022-11-04T13:22:47.173Z,61.00
2022-11-04T13:25:23.700Z,59.15
2022-11-04T13:27:51.826Z,59.63
2022-11-04T13:30:40.421Z,64.45
2022-11-04T13:33:16.959Z,62.10
2022-11-04T13:35:50.145Z,69.32
2022-11-04T13:38:30.573Z,65.93
2022-11-04T13:41:21.328Z,67.15
2022-11-04T13:43:57.065Z,77.75
2022-11-04T13:46:31.314Z,76.03
2022-11-04T13:49:11.201Z,73.82
2022-11-04T13:51:41.766Z,72.68
2022-11-04T13:54:24.152Z,66.50
2022-11-04T13:57:22.849Z,68.90
2022-11-04T14:00:22.397Z,66.20
2022-11-04T14:03:00.397Z,64.82
2022-11-04T14:05:28.282Z,65.75
2022-11-04T14:07:59.283Z,66.78
2022-11-04T14:10:48.903Z,64.53
2022-11-04T14:13:32.612Z,63.92
2022-11-04T14:16:05.963Z,67.18
2022-11-04T14:18:41.257Z,66.68
2022-11-04T14:21:10.757Z,64.30
2022-11-04T14:23:40.713Z,61.58
2022-11-04T14:26:11.117Z,62.85
2022-11-04T14:28:41.610Z,62.60
2022-11-04T14:31:15.977Z,276.38
2022-11-04T14:33:54.534Z,77.30
2022-11-04T14:36:22.086Z,61.58
2022-11-04T14:38:56.119Z,57.58
2022-11-04T14:41:39.473Z,64.45
2022-11-04T14:44:37.647Z,71.90
2022-11-04T14:47:29.645Z,82.50
2022-11-04T14:49:58.564Z,95.28
2022-11-04T14:52:33.184Z,61.92
2022-11-04T14:55:12.107Z,108.43
2022-11-04T14:57:49.746Z,59.30
2022-11-04T15:00:23.121Z,53.78
2022-11-04T15:03:52.047Z,54.83
2022-11-04T15:06:07.343Z,52.47
2022-11-04T15:08:44.503Z,52.95
2022-11-04T15:11:41.334Z,47.25
2022-11-04T15:14:24.324Z,50.88
2022-11-04T15:16:56.459Z,49.55
2022-11-04T15:19:35.601Z,47.80
2022-11-04T15:22:06.186Z,47.78
2022-11-04T15:24:35.428Z,50.88
2022-11-04T15:27:06.179Z,46.47
2022-11-04T15:29:33.962Z,48.88
2022-11-04T15:32:05.313Z,47.55
2022-11-04T15:34:35.461Z,47.50
2022-11-04T15:37:05.567Z,48.60
2022-11-04T15:39:43.489Z,46.05
2022-11-04T15:42:40.203Z,47.40
2022-11-04T15:45:50.256Z,44.90
2022-11-04T15:48:29.937Z,48.35
2022-11-04T15:51:16.015Z,48.08
2022-11-04T15:54:20.505Z,45.80
2022-11-04T15:56:52.796Z,45.53
2022-11-04T15:59:24.901Z,46.65
2022-11-04T16:01:53.811Z,45.65
2022-11-04T16:04:25.148Z,44.92
2022-11-04T16:07:06.321Z,44.38
2022-11-04T16:09:55.075Z,44.38
2022-11-04T16:12:30.626Z,44.95
2022-11-04T16:15:00.129Z,44.28
2022-11-04T16:17:29.629Z,45.67
2022-11-04T16:20:01.401Z,43.10
2022-11-04T16:22:40.527Z,45.08
2022-11-04T16:25:19.669Z,46.63
2022-11-04T16:27:47.844Z,46.17
2022-11-04T16:30:21.640Z,45.22
2022-11-04T16:32:51.575Z,45.70
2022-11-04T16:35:28.363Z,44.83
2022-11-04T16:37:56.481Z,44.10
2022-11-04T16:40:25.257Z,44.25
2022-11-04T16:42:53.700Z,42.28
2022-11-04T16:45:29.228Z,41.75
2022-11-04T16:47:57.321Z,124.00
2022-11-04T16:50:25.634Z,41.00
2022-11-04T16:52:53.918Z,46.30
2022-11-04T16:55:23.624Z,41.55
2022-11-04T16:58:00.250Z,44.35
2022-11-04T17:00:29.087Z,43.05
2022-11-04T17:02:56.669Z,45.53
2022-11-04T17:05:33.832Z,38.25
2022-11-04T17:08:06.170Z,38.97
2022-11-04T17:10:40.040Z,40.45
2022-11-04T17:13:09.586Z,38.67
2022-11-04T17:15:37.282Z,37.67
2022-11-04T17:18:06.352Z,39.75
2022-11-04T17:20:34.951Z,38.75
2022-11-04T17:23:02.845Z,40.28
2022-11-04T17:25:30.744Z,39.35
2022-11-04T17:27:58.719Z,38.75
2022-11-04T17:30:26.646Z,37.80
2022-11-04T17:32:54.274Z,38.95
2022-11-04T17:35:22.330Z,37.47
2022-11-04T17:37:56.227Z,36.75
2022-11-04T17:40:24.900Z,38.88
2022-11-04T17:43:12.556Z,37.83
2022-11-04T17:45:44.092Z,38.58
2022-11-04T17:48:15.382Z,37.00
2022-11-04T17:50:43.169Z,39.40
2022-11-04T17:53:11.259Z,40.45
2022-11-04T17:55:40.691Z,38.97
2022-11-04T17:58:08.991Z,39.65
2022-11-04T18:00:36.905Z,39.75
2022-11-04T18:03:06.849Z,38.53
2022-11-04T18:05:35.203Z,39.42
2022-11-04T18:08:02.973Z,35.28
2022-11-04T18:10:32.832Z,38.72
2022-11-04T18:13:00.589Z,39.63
2022-11-04T18:15:28.554Z,39.88
2022-11-04T18:17:57.288Z,38.03
2022-11-04T18:20:25.334Z,41.13
2022-11-04T18:22:53.809Z,38.42
2022-11-04T18:25:21.526Z,36.50
2022-11-04T18:27:49.362Z,37.50
2022-11-04T18:30:17.000Z,37.22
2022-11-04T18:32:44.744Z,37.42
2022-11-04T18:35:12.353Z,37.17
2022-11-04T18:37:46.723Z,36.10
2022-11-04T18:40:15.650Z,34.72
2022-11-04T18:42:44.267Z,35.15
2022-11-04T18:45:12.133Z,82.07
2022-11-04T18:47:40.084Z,35.22
2022-11-04T18:50:07.885Z,32.72
2022-11-04T18:52:35.628Z,33.03
2022-11-04T18:55:03.407Z,88.10
2022-11-04T18:57:31.601Z,34.00
2022-11-04T18:59:59.395Z,36.28
2022-11-04T19:02:27.144Z,36.25
2022-11-04T19:04:54.962Z,43.88
2022-11-04T19:07:23.070Z,38.83
2022-11-04T19:09:51.037Z,36.70
2022-11-04T19:12:37.355Z,36.50
2022-11-04T19:15:05.458Z,35.45
2022-11-04T19:17:35.360Z,37.80
2022-11-04T19:20:11.058Z,37.20
2022-11-04T19:22:40.791Z,36.55
2022-11-04T19:25:09.621Z,40.33
2022-11-04T19:27:37.505Z,37.10
2022-11-04T19:30:05.674Z,36.60
2022-11-04T19:32:33.553Z,34.30
2022-11-04T19:35:01.330Z,37.20
2022-11-04T19:37:29.122Z,36.45
2022-11-04T19:39:57.321Z,37.97
2022-11-04T19:42:43.898Z,39.38
2022-11-04T19:45:11.655Z,39.65
2022-11-04T19:47:39.376Z,42.78
2022-11-04T19:50:07.410Z,43.83
2022-11-04T19:52:35.206Z,47.65
2022-11-04T19:55:03.105Z,45.92
2022-11-04T19:57:31.255Z,48.33
2022-11-04T20:00:00.430Z,45.63
2022-11-04T20:02:28.276Z,46.22
2022-11-04T20:04:55.971Z,43.60
2022-11-04T20:07:23.473Z,42.53
2022-11-04T20:09:53.963Z,41.15
2022-11-04T20:12:40.221Z,42.13
2022-11-04T20:15:09.435Z,41.83
2022-11-04T20:17:37.188Z,43.72
2022-11-04T20:20:05.534Z,39.40
2022-11-04T20:22:33.116Z,41.38
2022-11-04T20:25:00.813Z,44.08
2022-11-04T20:27:28.580Z,42.53
2022-11-04T20:29:56.343Z,40.63
2022-11-04T20:32:24.273Z,39.85
2022-11-04T20:34:51.975Z,39.45
2022-11-04T20:37:19.658Z,41.50
2022-11-04T20:39:47.413Z,38.42
2022-11-04T20:42:15.207Z,38.78
2022-11-04T20:44:42.883Z,37.88
2022-11-04T20:47:10.541Z,38.20
2022-11-04T20:49:38.544Z,37.67
2022-11-04T20:52:06.233Z,39.10
2022-11-04T20:54:33.925Z,40.00
2022-11-04T20:57:01.385Z,40.20
2022-11-04T20:59:28.868Z,42.95
2022-11-04T21:01:56.679Z,42.80
2022-11-04T21:04:24.532Z,43.92
2022-11-04T21:06:52.560Z,43.70
2022-11-04T21:09:21.546Z,47.53
2022-11-04T21:11:50.364Z,46.88
2022-11-04T21:14:19.687Z,46.30
2022-11-04T21:16:48.047Z,48.55
2022-11-04T21:19:16.589Z,46.67
2022-11-04T21:21:45.176Z,44.97
2022-11-04T21:24:14.742Z,42.10
2022-11-04T21:26:44.087Z,43.08
2022-11-04T21:29:14.155Z,43.38
2022-11-04T21:31:42.832Z,46.22
2022-11-04T21:34:10.723Z,45.83
2022-11-04T21:36:39.146Z,45.88
2022-11-04T21:39:07.312Z,45.33
2022-11-04T21:41:37.240Z,46.88
2022-11-04T21:44:08.371Z,51.42
2022-11-04T21:46:36.971Z,51.40
2022-11-04T21:49:05.151Z,53.17
2022-11-04T21:51:34.336Z,59.80
2022-11-04T21:54:06.731Z,60.38
2022-11-04T21:56:35.085Z,63.42
2022-11-04T21:59:03.937Z,60.47
2022-11-04T22:01:32.420Z,55.45
2022-11-04T22:04:01.761Z,53.53
2022-11-04T22:06:34.688Z,57.90
2022-11-04T22:09:05.903Z,54.05
2022-11-04T22:11:37.222Z,52.55
2022-11-04T22:14:08.171Z,50.22
2022-11-04T22:16:38.629Z,45.47
2022-11-04T22:19:08.304Z,42.40
2022-11-04T22:21:39.334Z,37.05
2022-11-04T22:24:07.311Z,33.60
2022-11-04T22:26:34.897Z,29.38
2022-11-04T22:29:02.341Z,26.50
2022-11-04T22:31:32.719Z,22.38
2022-11-04T22:34:01.998Z,23.35
2022-11-04T22:36:31.227Z,22.23
2022-11-04T22:38:59.203Z,21.63
2022-11-04T22:41:30.945Z,23.05
2022-11-04T22:43:58.560Z,22.70
2022-11-04T22:46:29.049Z,22.50
2022-11-04T22:48:56.648Z,20.50
2022-11-04T22:51:24.175Z,19.63
2022-11-04T22:53:57.862Z,19.05
2022-11-04T22:56:26.538Z,18.15
2022-11-04T22:58:54.594Z,17.67
2022-11-04T23:01:22.866Z,17.25
2022-11-04T23:03:52.135Z,16.42
2022-11-04T23:06:20.050Z,16.45
2022-11-04T23:08:47.824Z,14.95
2022-11-04T23:12:04.853Z,14.57
2022-11-04T23:14:38.047Z,13.55
2022-11-04T23:17:38.085Z,13.45
2022-11-04T23:20:10.181Z,13.18
2022-11-04T23:22:56.808Z,12.68
2022-11-04T23:25:25.273Z,11.25
2022-11-04T23:28:14.001Z,10.85
2022-11-04T23:30:45.408Z,10.35
2022-11-04T23:33:14.641Z,9.43
2022-11-04T23:36:03.802Z,9.88
2022-11-04T23:38:32.270Z,9.35
2022-11-04T23:41:22.125Z,9.57
2022-11-04T23:43:50.092Z,7.50
2022-11-04T23:46:42.346Z,7.63
2022-11-04T23:49:29.833Z,7.07
2022-11-04T23:52:15.793Z,6.65
2022-11-04T23:55:01.573Z,6.10
2022-11-04T23:57:47.422Z,6.20
